Time;durP1;ratioP1;P1;durP2;ratioP2;P2;SDS_P1;SDS_P2;PMS_P1;PMS_P2;Temp;Humidity;BMP_temperature;BMP_pressure;BME280_temperature;BME280_humidity;BME280_pressure;Samples;Min_cycle;Max_cycle;Signal;HPM_P1;HPM_P2
2023/07/05 00:01:23;;;;;;;;;;;;;;;15.24;100.00;100484.72;5099647;28;20428;-58
2023/07/05 00:03:49;;;;;;;;;;;;;;;15.24;100.00;100471.78;5099276;28;19916;-57
2023/07/05 00:06:14;;;;;;;;;;;;;;;15.21;100.00;100461.41;5069930;28;20305;-57
2023/07/05 00:08:40;;;;;;;;;;;;;;;15.20;100.00;100451.91;5098102;28;19924;-56
2023/07/05 00:11:07;;;;;;;;;;;;;;;15.17;100.00;100431.19;5091742;28;19931;-57
2023/07/05 00:13:33;;;;;;;;;;;;;;;15.18;100.00;100427.75;5097028;28;20463;-57
2023/07/05 00:15:59;;;;;;;;;;;;;;;15.18;100.00;100414.78;5100760;28;19924;-58
2023/07/05 00:18:24;;;;;;;;;;;;;;;15.18;100.00;100410.47;5106025;28;19916;-57
2023/07/05 00:20:49;;;;;;;;;;;;;;;15.15;100.00;100404.41;5098716;28;20326;-57
2023/07/05 00:23:15;;;;;;;;;;;;;;;15.14;100.00;100394.91;5098135;28;19916;-57
2023/07/05 00:25:40;;;;;;;;;;;;;;;15.15;100.00;100394.03;5090471;28;19935;-57
2023/07/05 00:28:05;;;;;;;;;;;;;;;15.18;100.00;100378.53;5095296;28;20469;-56
2023/07/05 00:30:31;;;;;;;;;;;;;;;15.16;100.00;100356.94;5102231;28;20520;-57
2023/07/05 00:32:56;;;;;;;;;;;;;;;15.15;100.00;100355.19;5098801;28;19926;-57
2023/07/05 00:35:21;;;;;;;;;;;;;;;15.15;100.00;100355.19;5066880;28;19935;-57
2023/07/05 00:37:46;;;;;;;;;;;;;;;15.17;100.00;100356.09;5097032;28;19927;-57
2023/07/05 00:40:12;;;;;;;;;;;;;;;15.11;100.00;100331.03;5093800;28;20478;-57
2023/07/05 00:42:38;;;;;;;;;;;;;;;15.09;100.00;100316.34;5098359;28;19974;-58
2023/07/05 00:45:09;;;;;;;;;;;;;;;15.08;100.00;100283.56;5100785;28;20281;-58
2023/07/05 00:47:36;;;;;;;;;;;;;;;15.11;100.00;100275.81;5095399;28;19946;-60
2023/07/05 00:50:03;;;;;;;;;;;;;;;15.01;100.00;100327.56;5095736;28;19938;-57
2023/07/05 00:52:29;;;;;;;;;;;;;;;14.99;100.00;100328.44;5100447;28;19930;-58
2023/07/05 00:54:56;;;;;;;;;;;;;;;14.95;100.00;100319.78;5105770;28;19919;-58
2023/07/05 00:57:24;;;;;;;;;;;;;;;14.98;100.00;100317.19;5108074;28;19927;-58
2023/07/05 00:59:55;;;;;;;;;;;;;;;14.89;100.00;100300.81;5099290;28;19927;-58
2023/07/05 01:02:21;;;;;;;;;;;;;;;14.86;100.00;100295.59;5091301;28;19973;-58
2023/07/05 01:04:46;;;;;;;;;;;;;;;14.85;100.00;100296.47;5089073;28;19927;-58
2023/07/05 01:07:11;;;;;;;;;;;;;;;14.86;100.00;100286.09;5099057;27;19986;-58
2023/07/05 01:09:37;;;;;;;;;;;;;;;14.86;100.00;100291.28;5099459;27;19927;-57
2023/07/05 01:12:09;;;;;;;;;;;;;;;14.84;100.00;100287.84;5100028;28;19928;-57
2023/07/05 01:14:41;;;;;;;;;;;;;;;14.84;100.00;100285.25;5095631;28;20348;-57
2023/07/05 01:17:18;;;;;;;;;;;;;;;14.87;100.00;100281.81;5103458;27;19915;-57
2023/07/05 01:19:46;;;;;;;;;;;;;;;14.89;100.00;100274.91;5066258;28;20326;-57
2023/07/05 01:22:17;;;;;;;;;;;;;;;14.90;100.00;100277.50;5092884;28;20293;-58
2023/07/05 01:24:45;;;;;;;;;;;;;;;14.93;100.00;100276.66;5088201;28;20506;-57
2023/07/05 01:27:23;;;;;;;;;;;;;;;14.91;100.00;100273.19;5097343;27;20040;-58
2023/07/05 01:29:57;;;;;;;;;;;;;;;14.97;100.00;100270.59;5094478;28;20007;-58
2023/07/05 01:32:24;;;;;;;;;;;;;;;14.96;100.00;100284.41;5099052;28;20004;-58
2023/07/05 01:34:54;;;;;;;;;;;;;;;14.99;100.00;100287.00;5093304;28;19924;-58
2023/07/05 01:37:38;;;;;;;;;;;;;;;15.03;100.00;100292.19;5093801;28;19927;-57
2023/07/05 01:40:11;;;;;;;;;;;;;;;15.05;100.00;100275.81;5094940;27;20255;-58
2023/07/05 01:42:37;;;;;;;;;;;;;;;15.13;100.00;100292.19;5105928;27;20406;-58
2023/07/05 01:45:02;;;;;;;;;;;;;;;15.15;100.00;100301.69;5096519;27;19971;-57
2023/07/05 01:47:35;;;;;;;;;;;;;;;15.23;100.00;100296.53;5085186;28;20019;-57
2023/07/05 01:50:03;;;;;;;;;;;;;;;15.18;100.00;100290.47;5094453;28;19940;-57
2023/07/05 01:52:28;;;;;;;;;;;;;;;15.18;100.00;100293.06;5100841;27;19932;-56
2023/07/05 01:55:02;;;;;;;;;;;;;;;15.20;100.00;100294.78;5100891;28;19941;-57
2023/07/05 01:57:34;;;;;;;;;;;;;;;15.16;100.00;100295.63;5097276;28;19920;-44
2023/07/05 02:00:01;;;;;;;;;;;;;;;15.17;100.00;100305.16;5086461;28;19920;-46
2023/07/05 02:02:29;;;;;;;;;;;;;;;15.11;100.00;100304.28;5089993;28;19922;-47
2023/07/05 02:04:55;;;;;;;;;;;;;;;15.09;100.00;100309.44;5100982;28;20275;-44
2023/07/05 02:07:25;;;;;;;;;;;;;;;15.09;100.00;100313.75;5101938;28;19923;-45
2023/07/05 02:09:50;;;;;;;;;;;;;;;15.07;100.00;100325.84;5096434;28;19922;-46
2023/07/05 02:12:15;;;;;;;;;;;;;;;15.09;100.00;100327.56;5090802;28;19932;-43
2023/07/05 02:14:40;;;;;;;;;;;;;;;15.09;100.00;100350.00;5091556;28;19928;-43
2023/07/05 02:17:06;;;;;;;;;;;;;;;15.04;100.00;100342.22;5094438;28;19945;-44
2023/07/05 02:19:31;;;;;;;;;;;;;;;15.02;100.00;100369.84;5098934;28;19924;-45
2023/07/05 02:21:56;;;;;;;;;;;;;;;14.85;100.00;100359.47;5093668;28;20106;-46
2023/07/05 02:24:22;;;;;;;;;;;;;;;14.72;100.00;100362.88;5097497;27;19927;-44
2023/07/05 02:26:47;;;;;;;;;;;;;;;14.60;100.00;100366.28;5100388;28;20465;-44
2023/07/05 02:29:12;;;;;;;;;;;;;;;14.53;100.00;100379.19;5088363;28;19959;-47
2023/07/05 02:31:37;;;;;;;;;;;;;;;14.40;100.00;100378.25;5100817;27;20277;-45
2023/07/05 02:34:02;;;;;;;;;;;;;;;14.44;100.00;100395.53;5099271;27;19916;-44
2023/07/05 02:36:28;;;;;;;;;;;;;;;14.20;100.00;100393.66;5100158;27;19931;-46
2023/07/05 02:38:53;;;;;;;;;;;;;;;14.10;100.00;100408.25;5103475;27;19920;-44
2023/07/05 02:41:19;;;;;;;;;;;;;;;14.00;100.00;100414.19;5094521;28;20369;-45
2023/07/05 02:43:45;;;;;;;;;;;;;;;13.91;100.00;100406.41;5100385;27;20381;-44
2023/07/05 02:46:10;;;;;;;;;;;;;;;13.84;100.00;100408.06;5098210;27;19950;-44
2023/07/05 02:48:35;;;;;;;;;;;;;;;13.73;100.00;100401.97;5092875;28;19955;-45
2023/07/05 02:51:00;;;;;;;;;;;;;;;13.70;100.00;100401.91;5095929;27;20625;-43
2023/07/05 02:53:26;;;;;;;;;;;;;;;13.72;100.00;100405.41;5093629;27;20293;-46
2023/07/05 02:55:51;;;;;;;;;;;;;;;13.62;100.00;100406.16;5103413;27;19924;-47
2023/07/05 02:58:16;;;;;;;;;;;;;;;13.55;100.00;100400.09;5093246;28;19981;-46
2023/07/05 03:00:42;;;;;;;;;;;;;;;13.53;100.00;100394.06;5093980;27;19923;-45
2023/07/05 03:03:07;;;;;;;;;;;;;;;13.41;100.00;100401.69;5082497;28;19923;-45
2023/07/05 03:05:33;;;;;;;;;;;;;;;13.39;100.00;100403.38;5101520;28;19968;-44
2023/07/05 03:07:58;;;;;;;;;;;;;;;13.30;100.00;100405.88;5080312;28;19959;-45
2023/07/05 03:10:23;;;;;;;;;;;;;;;13.26;100.00;100404.13;5093305;28;19928;-44
2023/07/05 03:12:48;;;;;;;;;;;;;;;13.22;100.00;100410.94;5093527;28;19931;-43
2023/07/05 03:15:13;;;;;;;;;;;;;;;13.21;100.00;100398.91;5090229;28;19928;-44
2023/07/05 03:17:39;;;;;;;;;;;;;;;13.17;100.00;100393.69;5101839;27;20366;-44
2023/07/05 03:20:04;;;;;;;;;;;;;;;13.15;100.00;100401.38;5097073;28;19964;-44
2023/07/05 03:22:30;;;;;;;;;;;;;;;13.11;100.00;100408.25;5104684;27;19923;-44
2023/07/05 03:24:55;;;;;;;;;;;;;;;13.10;100.00;100406.53;5091390;28;20407;-44
2023/07/05 03:27:20;;;;;;;;;;;;;;;13.02;100.00;100404.69;5096371;28;19920;-44
2023/07/05 03:29:45;;;;;;;;;;;;;;;13.08;100.00;100410.78;5083864;28;19924;-44
2023/07/05 03:32:11;;;;;;;;;;;;;;;13.07;100.00;100409.06;5098961;28;19999;-45
2023/07/05 03:34:36;;;;;;;;;;;;;;;13.16;100.00;100408.28;5086691;28;20047;-43
2023/07/05 03:37:02;;;;;;;;;;;;;;;13.14;100.00;100409.97;5096980;28;19923;-45
2023/07/05 03:39:27;;;;;;;;;;;;;;;13.23;100.00;100402.38;5100655;28;19924;-45
2023/07/05 03:41:52;;;;;;;;;;;;;;;13.24;100.00;100409.28;5103064;28;19968;-44
2023/07/05 03:44:21;;;;;;;;;;;;;;;13.25;100.00;100407.56;5107367;28;19942;-44
2023/07/05 03:46:47;;;;;;;;;;;;;;;13.19;100.00;100418.66;5102180;28;19924;-47
2023/07/05 03:49:12;;;;;;;;;;;;;;;13.22;100.00;100408.38;5101051;28;19920;-47
2023/07/05 03:51:38;;;;;;;;;;;;;;;13.18;100.00;100418.63;5099046;28;19928;-43
2023/07/05 03:54:03;;;;;;;;;;;;;;;13.30;100.00;100416.22;5081813;28;19934;-45
2023/07/05 03:56:28;;;;;;;;;;;;;;;13.31;100.00;100412.78;5103493;28;19915;-44
2023/07/05 03:58:54;;;;;;;;;;;;;;;13.43;100.00;100422.34;5101228;28;19960;-44
2023/07/05 04:01:21;;;;;;;;;;;;;;;13.35;100.00;100399.06;5101384;27;20253;-46
2023/07/05 04:03:53;;;;;;;;;;;;;;;13.31;100.00;100408.47;5103955;27;19931;-44
2023/07/05 04:06:19;;;;;;;;;;;;;;;13.32;100.00;100412.78;5102167;27;19916;-46
2023/07/05 04:08:45;;;;;;;;;;;;;;;13.32;100.00;100404.19;5105769;27;19997;-43
2023/07/05 04:11:10;;;;;;;;;;;;;;;13.30;100.00;100401.59;5105337;27;20389;-46
2023/07/05 04:13:36;;;;;;;;;;;;;;;13.32;100.00;100394.72;5107583;27;20392;-47
2023/07/05 04:16:01;;;;;;;;;;;;;;;13.34;100.00;100402.47;5113028;27;19968;-45
2023/07/05 04:18:27;;;;;;;;;;;;;;;13.33;100.00;100398.16;5114873;27;19920;-43
2023/07/05 04:20:52;;;;;;;;;;;;;;;13.32;100.00;100410.19;5111041;27;21106;-43
2023/07/05 04:23:18;;;;;;;;;;;;;;;13.39;100.00;100401.66;5111327;27;19958;-47
2023/07/05 04:25:43;;;;;;;;;;;;;;;13.37;100.00;100412.84;5112559;27;19939;-46
2023/07/05 04:28:08;;;;;;;;;;;;;;;13.44;100.00;100406.00;5113870;27;19922;-45
2023/07/05 04:30:33;;;;;;;;;;;;;;;13.47;100.00;100401.75;5095015;27;19923;-44
2023/07/05 04:32:59;;;;;;;;;;;;;;;13.52;100.00;100409.50;5106700;27;19961;-46
2023/07/05 04:35:24;;;;;;;;;;;;;;;13.58;100.00;100406.97;5111295;27;19958;-44
2023/07/05 04:37:49;;;;;;;;;;;;;;;13.62;100.00;100407.03;5095890;27;19939;-46
2023/07/05 04:40:14;;;;;;;;;;;;;;;13.63;100.00;100410.47;5088033;28;19977;-46
2023/07/05 04:42:39;;;;;;;;;;;;;;;13.67;100.00;100405.34;5059665;28;20665;-45
2023/07/05 04:45:05;;;;;;;;;;;;;;;13.57;100.00;100419.03;5087249;28;19975;-48
2023/07/05 04:47:30;;;;;;;;;;;;;;;13.57;100.00;100406.13;5077809;28;19920;-44
2023/07/05 04:49:55;;;;;;;;;;;;;;;13.72;100.00;100405.41;5081342;28;19920;-46
2023/07/05 04:52:21;;;;;;;;;;;;;;;13.65;100.00;100408.75;5083341;28;19944;-47
2023/07/05 04:54:46;;;;;;;;;;;;;;;13.65;100.00;100421.69;5082778;28;19924;-46
2023/07/05 04:57:11;;;;;;;;;;;;;;;13.66;100.00;100408.78;5086214;28;19927;-45
2023/07/05 04:59:38;;;;;;;;;;;;;;;13.74;100.00;100397.66;5084647;28;19924;-43
2023/07/05 05:02:05;;;;;;;;;;;;;;;13.71;100.00;100402.78;5074554;28;20400;-47
2023/07/05 05:04:30;;;;;;;;;;;;;;;13.65;100.00;100393.25;5082530;28;20542;-47
2023/07/05 05:06:55;;;;;;;;;;;;;;;13.65;100.00;100404.50;5078177;28;19945;-45
2023/07/05 05:09:21;;;;;;;;;;;;;;;13.66;100.00;100413.09;5083579;28;20362;-43
2023/07/05 05:11:46;;;;;;;;;;;;;;;13.78;98.76;100423.53;5071327;28;19932;-45
2023/07/05 05:14:11;;;;;;;;;;;;;;;13.76;99.19;100416.59;5071057;28;19928;-46
2023/07/05 05:16:36;;;;;;;;;;;;;;;13.75;99.45;100423.50;5068912;28;19927;-44
2023/07/05 05:19:02;;;;;;;;;;;;;;;13.77;98.49;100434.72;5084244;28;19920;-44
2023/07/05 05:21:27;;;;;;;;;;;;;;;13.78;97.39;100417.50;5077181;28;19924;-47
2023/07/05 05:23:52;;;;;;;;;;;;;;;13.79;98.02;100420.09;5067961;28;19951;-44
2023/07/05 05:26:17;;;;;;;;;;;;;;;13.89;95.57;100424.50;5082657;28;19928;-44
2023/07/05 05:28:43;;;;;;;;;;;;;;;13.80;96.28;100421.81;5076131;28;19920;-43
2023/07/05 05:31:09;;;;;;;;;;;;;;;13.83;95.37;100429.59;5085413;28;19924;-45
2023/07/05 05:33:35;;;;;;;;;;;;;;;13.76;96.64;100419.19;5085420;28;20295;-46
2023/07/05 05:36:00;;;;;;;;;;;;;;;13.85;95.26;100419.28;5064350;28;20394;-44
2023/07/05 05:38:26;;;;;;;;;;;;;;;13.89;94.32;100418.41;5113758;27;19920;-45
2023/07/05 05:40:51;;;;;;;;;;;;;;;13.84;95.85;100425.31;5097146;27;20048;-46
2023/07/05 05:43:17;;;;;;;;;;;;;;;13.81;96.75;100431.28;5102941;27;19920;-45
2023/07/05 05:45:42;;;;;;;;;;;;;;;13.71;98.52;100426.03;5086667;28;19920;-46
2023/07/05 05:48:08;;;;;;;;;;;;;;;13.61;100.00;100431.13;5090144;28;19927;-46
2023/07/05 05:50:33;;;;;;;;;;;;;;;13.52;100.00;100427.59;5100678;27;19920;-46
2023/07/05 05:52:59;;;;;;;;;;;;;;;13.43;100.00;100430.09;5095958;27;20041;-45
2023/07/05 05:55:24;;;;;;;;;;;;;;;13.44;100.00;100444.75;5087503;28;19932;-46
2023/07/05 05:57:49;;;;;;;;;;;;;;;13.44;100.00;100435.28;5067446;28;19964;-47
2023/07/05 06:00:15;;;;;;;;;;;;;;;13.38;100.00;100451.56;5089579;28;19931;-43
2023/07/05 06:02:40;;;;;;;;;;;;;;;13.31;100.00;100436.00;5096373;27;19978;-49
2023/07/05 06:05:06;;;;;;;;;;;;;;;12.99;100.00;100453.72;5075969;28;19927;-45
2023/07/05 06:07:31;;;;;;;;;;;;;;;12.85;100.00;100458.69;5104575;27;19981;-45
2023/07/05 06:09:56;;;;;;;;;;;;;;;12.79;100.00;100449.16;5096752;27;19985;-44
2023/07/05 06:12:21;;;;;;;;;;;;;;;12.79;100.00;100456.03;5100259;27;19954;-44
2023/07/05 06:14:47;;;;;;;;;;;;;;;12.76;100.00;100456.88;5091204;28;20322;-44
2023/07/05 06:17:12;;;;;;;;;;;;;;;12.79;100.00;100466.34;5103133;27;19936;-46
2023/07/05 06:19:38;;;;;;;;;;;;;;;12.81;100.00;100465.53;5103614;27;19924;-45
2023/07/05 06:22:03;;;;;;;;;;;;;;;12.79;100.00;100467.22;5098776;27;20362;-46
2023/07/05 06:24:28;;;;;;;;;;;;;;;12.78;100.00;100475.81;5107006;28;19969;-48
2023/07/05 06:26:53;;;;;;;;;;;;;;;12.78;100.00;100475.81;5101771;27;19928;-44
2023/07/05 06:29:19;;;;;;;;;;;;;;;12.83;100.00;100471.56;5106571;27;19922;-44
2023/07/05 06:31:44;;;;;;;;;;;;;;;12.95;100.00;100478.59;5081249;28;21203;-44
2023/07/05 06:34:09;;;;;;;;;;;;;;;13.10;100.00;100481.38;5076502;28;20267;-50
2023/07/05 06:36:34;;;;;;;;;;;;;;;13.30;100.00;100480.78;5106815;27;19920;-45
2023/07/05 06:39:00;;;;;;;;;;;;;;;13.52;100.00;100474.09;5101262;27;19924;-46
2023/07/05 06:41:25;;;;;;;;;;;;;;;13.83;100.00;100486.47;5093472;28;19920;-45
2023/07/05 06:43:50;;;;;;;;;;;;;;;14.10;100.00;100472.88;5087126;28;19932;-46
2023/07/05 06:46:15;;;;;;;;;;;;;;;14.45;99.39;100488.66;5090842;27;19924;-48
2023/07/05 06:48:41;;;;;;;;;;;;;;;14.74;95.43;100490.53;5094591;27;20011;-46
2023/07/05 06:51:06;;;;;;;;;;;;;;;14.98;95.10;100485.47;5094160;28;19981;-48
2023/07/05 06:53:31;;;;;;;;;;;;;;;15.10;92.35;100488.97;5088636;28;20000;-47
2023/07/05 06:55:56;;;;;;;;;;;;;;;15.16;90.15;100496.78;5083535;28;19928;-47
2023/07/05 06:58:22;;;;;;;;;;;;;;;15.16;89.51;100522.66;5101989;27;19919;-46
2023/07/05 07:00:47;;;;;;;;;;;;;;;15.15;91.75;100506.28;5102969;27;19920;-48
2023/07/05 07:03:13;;;;;;;;;;;;;;;14.94;88.08;100535.53;5099692;28;19920;-47
2023/07/05 07:05:38;;;;;;;;;;;;;;;14.84;86.27;100525.97;5085230;28;19935;-48
2023/07/05 07:08:03;;;;;;;;;;;;;;;14.83;88.16;100529.44;5100174;27;20913;-45
2023/07/05 07:10:28;;;;;;;;;;;;;;;15.00;88.51;100526.94;5084978;28;20003;-45
2023/07/05 07:12:54;;;;;;;;;;;;;;;15.07;86.68;100548.53;5092887;28;19927;-47
2023/07/05 07:15:19;;;;;;;;;;;;;;;14.99;89.21;100536.44;5092065;27;20272;-50
2023/07/05 07:17:45;;;;;;;;;;;;;;;14.85;87.46;100553.59;5092461;28;20111;-46
2023/07/05 07:20:11;;;;;;;;;;;;;;;14.70;87.87;100548.34;5099462;27;19919;-44
2023/07/05 07:22:36;;;;;;;;;;;;;;;14.47;89.01;100574.91;5077482;28;19973;-47
2023/07/05 07:25:01;;;;;;;;;;;;;;;14.39;90.96;100573.09;5095638;28;19920;-46
2023/07/05 07:27:26;;;;;;;;;;;;;;;14.57;89.64;100562.06;5071464;28;20426;-44
2023/07/05 07:29:53;;;;;;;;;;;;;;;14.75;87.60;100573.41;5085083;28;19926;-49
2023/07/05 07:32:19;;;;;;;;;;;;;;;14.89;87.93;100589.00;5088536;28;19924;-45
2023/07/05 07:34:44;;;;;;;;;;;;;;;14.96;88.16;100589.91;5099834;27;20060;-47
2023/07/05 07:37:10;;;;;;;;;;;;;;;14.81;89.20;100601.06;5080615;28;20353;-46
2023/07/05 07:39:35;;;;;;;;;;;;;;;14.55;91.54;100597.38;5083809;28;19981;-46
2023/07/05 07:42:00;;;;;;;;;;;;;;;14.35;93.63;100628.25;5075876;28;20003;-50
2023/07/05 07:44:26;;;;;;;;;;;;;;;14.13;95.00;100622.00;5059518;28;19924;-46
2023/07/05 07:46:51;;;;;;;;;;;;;;;14.04;94.67;100615.03;5080861;28;19928;-48
2023/07/05 07:49:16;;;;;;;;;;;;;;;14.02;96.36;100627.09;5076321;28;20010;-44
2023/07/05 07:51:44;;;;;;;;;;;;;;;14.07;96.62;100638.31;5080297;28;19989;-44
2023/07/05 07:54:17;;;;;;;;;;;;;;;14.11;97.82;100618.53;5092353;28;20271;-45
2023/07/05 07:56:43;;;;;;;;;;;;;;;14.31;97.31;100634.22;5085989;28;20489;-47
2023/07/05 07:59:08;;;;;;;;;;;;;;;14.50;97.14;100628.44;5076291;28;20011;-48
2023/07/05 08:01:34;;;;;;;;;;;;;;;14.68;96.94;100632.84;5081037;28;20014;-45
2023/07/05 08:04:01;;;;;;;;;;;;;;;14.89;94.58;100630.44;5101432;28;19922;-50
2023/07/05 08:06:30;;;;;;;;;;;;;;;14.80;95.34;100637.25;5089012;28;19916;-47
2023/07/05 08:08:55;;;;;;;;;;;;;;;14.65;95.73;100657.00;5090284;28;19938;-47
2023/07/05 08:11:21;;;;;;;;;;;;;;;14.53;96.84;100641.38;5085103;28;20275;-49
2023/07/05 08:13:48;;;;;;;;;;;;;;;14.49;99.04;100642.19;5094221;28;19977;-45
2023/07/05 08:16:14;;;;;;;;;;;;;;;14.60;96.33;100637.09;5060566;28;19916;-45
2023/07/05 08:18:40;;;;;;;;;;;;;;;14.53;96.07;100662.06;5087911;28;19965;-49
2023/07/05 08:21:05;;;;;;;;;;;;;;;14.48;95.19;100655.97;5073826;28;19925;-48
2023/07/05 08:23:30;;;;;;;;;;;;;;;14.47;94.32;100655.13;5087492;28;19916;-48
2023/07/05 08:25:55;;;;;;;;;;;;;;;14.45;95.76;100658.53;5090755;28;19990;-47
2023/07/05 08:28:25;;;;;;;;;;;;;;;14.60;95.90;100671.59;5084972;28;20444;-47
2023/07/05 08:30:54;;;;;;;;;;;;;;;14.72;94.41;100663.09;5078450;28;20054;-51
2023/07/05 08:33:21;;;;;;;;;;;;;;;14.78;94.15;100664.84;5079910;28;19916;-50
2023/07/05 08:35:46;;;;;;;;;;;;;;;14.91;93.93;100666.69;5087279;28;19919;-48
2023/07/05 08:38:11;;;;;;;;;;;;;;;15.29;93.02;100669.53;5075402;28;20278;-50
2023/07/05 08:40:40;;;;;;;;;;;;;;;15.56;91.85;100692.13;5076690;28;19920;-47
2023/07/05 08:43:24;;;;;;;;;;;;;;;15.75;90.08;100683.59;5059035;28;19929;-48
2023/07/05 08:45:52;;;;;;;;;;;;;;;15.74;92.41;100684.47;5080120;28;20092;-46
2023/07/05 08:48:17;;;;;;;;;;;;;;;15.78;92.51;100714.72;5092394;28;19916;-44
2023/07/05 08:50:44;;;;;;;;;;;;;;;15.54;94.64;100710.25;5096449;28;19931;-46
2023/07/05 08:53:09;;;;;;;;;;;;;;;15.60;96.44;100705.97;5093075;28;19924;-49
2023/07/05 08:55:46;;;;;;;;;;;;;;;16.03;93.47;100705.31;5091191;28;20436;-52
2023/07/05 08:58:13;;;;;;;;;;;;;;;16.42;90.76;100716.66;5093617;28;19924;-45
2023/07/05 09:00:46;;;;;;;;;;;;;;;16.75;87.80;100728.00;5093897;28;20305;-50
2023/07/05 09:03:12;;;;;;;;;;;;;;;16.74;82.57;100736.63;5096710;28;19940;-47
2023/07/05 09:05:46;;;;;;;;;;;;;;;16.59;84.19;100740.03;5065548;28;19935;-43
2023/07/05 09:08:44;;;;;;;;;;;;;;;16.56;85.85;100746.09;5092058;28;20366;-48
2023/07/05 09:11:12;;;;;;;;;;;;;;;16.81;83.49;100735.78;5044422;28;19916;-46
2023/07/05 09:13:40;;;;;;;;;;;;;;;16.90;82.68;100751.34;5083232;28;19923;-50
2023/07/05 09:16:17;;;;;;;;;;;;;;;17.02;81.91;100745.28;5093032;28;19916;-47
2023/07/05 09:18:48;;;;;;;;;;;;;;;17.25;80.45;100727.94;5089665;28;19912;-47
2023/07/05 09:21:34;;;;;;;;;;;;;;;17.36;79.37;100753.94;5089405;28;19994;-48
2023/07/05 09:24:12;;;;;;;;;;;;;;;17.22;79.60;100750.47;5088161;28;19920;-49
2023/07/05 09:26:38;;;;;;;;;;;;;;;17.19;79.35;100766.06;5095686;28;19977;-45
2023/07/05 09:29:15;;;;;;;;;;;;;;;17.17;76.86;100776.47;5091373;28;19947;-48
2023/07/05 09:31:42;;;;;;;;;;;;;;;17.06;75.72;100778.22;5092405;28;19923;-47
2023/07/05 09:34:18;;;;;;;;;;;;;;;16.76;76.26;100795.50;5092479;28;19955;-46
2023/07/05 09:36:43;;;;;;;;;;;;;;;16.56;76.62;100792.84;5103337;28;20359;-47
2023/07/05 09:39:30;;;;;;;;;;;;;;;16.59;76.53;100802.34;5078708;28;20030;-49
2023/07/05 09:41:57;;;;;;;;;;;;;;;16.76;77.95;100810.22;5092495;28;19923;-44
2023/07/05 09:44:22;;;;;;;;;;;;;;;17.00;78.38;100823.22;5065117;28;20019;-45
2023/07/05 09:46:48;;;;;;;;;;;;;;;17.07;75.16;100824.09;5084403;28;20002;-48
2023/07/05 09:49:14;;;;;;;;;;;;;;;16.81;77.28;100804.16;5069063;28;19955;-48
2023/07/05 09:51:42;;;;;;;;;;;;;;;16.88;74.15;100815.41;5084069;28;19973;-48
2023/07/05 09:54:11;;;;;;;;;;;;;;;16.79;74.46;100818.84;5081119;28;20019;-50
2023/07/05 09:56:54;;;;;;;;;;;;;;;16.99;69.47;100812.84;5082403;28;19921;-48
2023/07/05 09:59:23;;;;;;;;;;;;;;;17.15;71.02;100825.81;5079252;28;20010;-48
2023/07/05 10:01:50;;;;;;;;;;;;;;;17.41;67.70;100830.16;5080839;28;19920;-49
2023/07/05 10:04:16;;;;;;;;;;;;;;;17.58;67.17;100836.19;5061020;28;19927;-46
2023/07/05 10:06:43;;;;;;;;;;;;;;;17.80;64.07;100855.28;5080938;28;19924;-44
2023/07/05 10:09:12;;;;;;;;;;;;;;;17.84;61.75;100858.75;5062116;28;19920;-49
2023/07/05 10:11:42;;;;;;;;;;;;;;;17.95;63.12;100842.22;5057224;28;19939;-45
2023/07/05 10:14:07;;;;;;;;;;;;;;;18.17;62.79;100835.25;5081945;28;20397;-45
2023/07/05 10:16:48;;;;;;;;;;;;;;;18.33;60.89;100874.25;5081931;28;19916;-47
2023/07/05 10:19:20;;;;;;;;;;;;;;;18.20;61.77;100889.00;5083797;28;19999;-49
2023/07/05 10:21:46;;;;;;;;;;;;;;;18.27;61.93;100877.72;5072262;28;20337;-45
2023/07/05 10:24:13;;;;;;;;;;;;;;;18.33;61.50;100895.06;5079843;28;19931;-47
2023/07/05 10:26:41;;;;;;;;;;;;;;;18.40;61.36;100874.22;5075230;28;19981;-47
2023/07/05 10:29:10;;;;;;;;;;;;;;;18.42;61.09;100897.63;5068956;28;20383;-45
2023/07/05 10:31:35;;;;;;;;;;;;;;;18.55;58.48;100895.84;5085088;28;20329;-46
2023/07/05 10:34:23;;;;;;;;;;;;;;;18.57;57.34;100900.19;5085486;28;19943;-49
2023/07/05 10:36:49;;;;;;;;;;;;;;;18.53;57.50;100903.66;5054327;28;19935;-47
2023/07/05 10:39:21;;;;;;;;;;;;;;;18.53;57.27;100888.03;5076204;28;19924;-49
2023/07/05 10:41:48;;;;;;;;;;;;;;;18.64;58.82;100919.25;5075407;28;19947;-49
2023/07/05 10:44:18;;;;;;;;;;;;;;;18.71;56.41;100914.03;5073802;28;19924;-48
2023/07/05 10:46:45;;;;;;;;;;;;;;;18.75;56.43;100920.97;5075789;28;20637;-46
2023/07/05 10:49:12;;;;;;;;;;;;;;;18.63;56.92;100925.34;5076323;28;19916;-47
2023/07/05 10:51:40;;;;;;;;;;;;;;;18.74;57.76;100923.56;5071757;28;20291;-48
2023/07/05 10:54:41;;;;;;;;;;;;;;;18.89;56.48;100925.25;5070363;28;19962;-49
2023/07/05 10:57:17;;;;;;;;;;;;;;;19.30;58.23;100919.78;5029551;28;19924;-46
2023/07/05 10:59:45;;;;;;;;;;;;;;;19.71;54.98;100923.84;5054586;28;19925;-49
2023/07/05 11:02:26;;;;;;;;;;;;;;;19.75;53.58;100942.06;5074704;28;19916;-51
2023/07/05 11:04:52;;;;;;;;;;;;;;;19.78;50.94;100939.44;5063972;28;20433;-46
2023/07/05 11:07:19;;;;;;;;;;;;;;;19.75;52.68;100942.06;5072899;28;20386;-49
2023/07/05 11:09:44;;;;;;;;;;;;;;;19.83;53.18;100963.72;5051849;28;19925;-48
2023/07/05 11:12:25;;;;;;;;;;;;;;;19.74;49.97;100948.16;5069496;28;19978;-48
2023/07/05 11:14:51;;;;;;;;;;;;;;;19.36;50.58;100943.22;5072864;28;19916;-45
2023/07/05 11:17:21;;;;;;;;;;;;;;;19.11;50.68;100955.53;5073162;28;19969;-49
2023/07/05 11:19:47;;;;;;;;;;;;;;;18.88;52.15;100942.63;5078413;28;20295;-51
2023/07/05 11:22:31;;;;;;;;;;;;;;;19.01;51.33;100957.31;5071527;28;19924;-54
2023/07/05 11:24:57;;;;;;;;;;;;;;;18.99;50.42;100961.69;5078304;28;19999;-54
2023/07/05 11:27:27;;;;;;;;;;;;;;;18.97;50.61;100952.97;5067555;28;19924;-49
2023/07/05 11:29:53;;;;;;;;;;;;;;;19.16;48.45;100981.56;5074655;28;20008;-50
2023/07/05 11:32:23;;;;;;;;;;;;;;;19.03;50.32;100976.41;5054055;28;19985;-49
2023/07/05 11:34:53;;;;;;;;;;;;;;;19.26;50.59;100980.63;5078595;28;19924;-52
2023/07/05 11:37:21;;;;;;;;;;;;;;;19.48;49.26;100969.22;5069774;28;19920;-52
2023/07/05 11:39:48;;;;;;;;;;;;;;;19.76;49.59;100977.72;5066761;28;19925;-50
2023/07/05 11:42:13;;;;;;;;;;;;;;;20.14;48.90;100976.50;5071444;28;20014;-52
2023/07/05 11:44:42;;;;;;;;;;;;;;;20.44;49.32;100983.16;5067642;28;20421;-52
2023/07/05 11:47:08;;;;;;;;;;;;;;;20.50;48.50;100982.25;5074197;28;19997;-52
2023/07/05 11:49:43;;;;;;;;;;;;;;;20.68;49.34;100997.75;5072790;28;19924;-47
2023/07/05 11:52:11;;;;;;;;;;;;;;;20.77;48.32;101000.25;5070149;28;20072;-48
2023/07/05 11:54:48;;;;;;;;;;;;;;;20.83;48.97;101012.38;5087451;28;19923;-47
2023/07/05 11:57:14;;;;;;;;;;;;;;;20.96;47.42;101002.66;5078696;28;19927;-50
2023/07/05 11:59:44;;;;;;;;;;;;;;;20.83;46.60;101026.31;5079286;28;20306;-48
2023/07/05 12:02:22;;;;;;;;;;;;;;;20.93;48.79;101018.34;5066149;28;19924;-47
2023/07/05 12:04:48;;;;;;;;;;;;;;;21.03;46.45;101026.06;5077169;28;19912;-47
2023/07/05 12:07:14;;;;;;;;;;;;;;;21.17;47.72;101031.13;5083672;28;19912;-49
2023/07/05 12:09:42;;;;;;;;;;;;;;;21.16;47.05;101022.41;5079263;28;19924;-48
2023/07/05 12:12:11;;;;;;;;;;;;;;;21.00;44.97;101047.03;5083275;28;19928;-50
2023/07/05 12:14:36;;;;;;;;;;;;;;;20.95;47.58;101042.75;5071007;28;20069;-50
2023/07/05 12:17:01;;;;;;;;;;;;;;;20.89;46.48;101047.16;5073958;28;20026;-48
2023/07/05 12:19:30;;;;;;;;;;;;;;;20.76;45.87;101040.34;5064484;28;20325;-48
2023/07/05 12:21:58;;;;;;;;;;;;;;;20.72;47.86;101041.25;5073672;28;19920;-50
2023/07/05 12:24:24;;;;;;;;;;;;;;;20.96;48.56;101044.47;5069888;28;19916;-48
2023/07/05 12:26:50;;;;;;;;;;;;;;;21.31;48.01;101057.16;5074046;28;20010;-50
2023/07/05 12:29:20;;;;;;;;;;;;;;;21.51;44.15;101034.19;5081394;28;19931;-50
2023/07/05 12:31:45;;;;;;;;;;;;;;;21.53;43.94;101048.09;5076134;28;20066;-50
2023/07/05 12:34:16;;;;;;;;;;;;;;;21.63;43.79;101059.31;5066745;28;20003;-51